Time;durP1;ratioP1;P1;durP2;ratioP2;P2;SDS_P1;SDS_P2;PMS_P1;PMS_P2;Temp;Humidity;BMP_temperature;BMP_pressure;BME280_temperature;BME280_humidity;BME280_pressure;Samples;Min_cycle;Max_cycle;Signal;HPM_P1;HPM_P2
2022/01/09 00:01:11;;;;;;;5.55;5.05;;;0.50;99.90;;;;;;5068518;28;20210;-80
2022/01/09 00:03:39;;;;;;;5.95;5.55;;;0.50;99.90;;;;;;5066147;28;20618;-82
2022/01/09 00:06:06;;;;;;;5.82;5.20;;;0.50;99.90;;;;;;5065459;28;20194;-79
2022/01/09 00:08:33;;;;;;;5.38;4.97;;;0.50;99.90;;;;;;5062781;28;20214;-80
2022/01/09 00:11:00;;;;;;;5.43;5.03;;;0.50;99.90;;;;;;5066327;28;20206;-79
2022/01/09 00:13:29;;;;;;;4.75;4.45;;;0.50;99.90;;;;;;5064250;28;20798;-78
2022/01/09 00:15:56;;;;;;;5.70;5.30;;;0.50;99.90;;;;;;5066074;28;20194;-80
2022/01/09 00:18:23;;;;;;;5.03;4.72;;;0.50;99.90;;;;;;5065290;28;20229;-79
2022/01/09 00:20:50;;;;;;;4.88;4.53;;;0.50;99.90;;;;;;5068851;28;20206;-80
2022/01/09 00:23:17;;;;;;;5.13;4.78;;;0.40;99.90;;;;;;5062798;28;20222;-81
2022/01/09 00:25:44;;;;;;;4.88;4.47;;;0.50;99.90;;;;;;5068888;28;20226;-80
2022/01/09 00:28:11;;;;;;;5.57;5.18;;;0.40;99.90;;;;;;5064669;28;20230;-81
2022/01/09 00:30:40;;;;;;;4.93;4.55;;;0.40;99.90;;;;;;5064463;28;20210;-81
2022/01/09 00:33:08;;;;;;;5.80;5.30;;;0.50;99.90;;;;;;5066595;28;20641;-80
2022/01/09 00:35:35;;;;;;;5.45;5.05;;;0.40;99.90;;;;;;5066409;28;20218;-81
2022/01/09 00:38:02;;;;;;;6.45;5.95;;;0.40;99.90;;;;;;5067941;28;20252;-81
2022/01/09 00:40:29;;;;;;;6.00;5.50;;;0.40;99.90;;;;;;5065564;28;20195;-81
2022/01/09 00:42:56;;;;;;;5.18;4.78;;;0.40;99.90;;;;;;5064871;28;20202;-81
2022/01/09 00:45:23;;;;;;;5.70;5.20;;;0.40;99.90;;;;;;5040773;28;20629;-80
2022/01/09 00:47:52;;;;;;;5.18;4.78;;;0.50;99.90;;;;;;5040944;28;20199;-81
2022/01/09 00:50:19;;;;;;;5.03;4.68;;;0.50;99.90;;;;;;5042881;28;20215;-81
2022/01/09 00:52:46;;;;;;;5.38;4.97;;;0.50;99.90;;;;;;5043593;28;20203;-81
2022/01/09 00:55:14;;;;;;;5.30;4.90;;;0.50;99.90;;;;;;5040294;28;20696;-81
2022/01/09 00:57:41;;;;;;;5.43;5.03;;;0.60;99.90;;;;;;5040756;28;20207;-80
2022/01/09 01:00:09;;;;;;;6.30;5.80;;;0.60;99.90;;;;;;5042276;28;20223;-80
2022/01/09 01:02:37;;;;;;;6.10;5.60;;;0.50;99.90;;;;;;5044538;28;20206;-81
2022/01/09 01:05:06;;;;;;;6.43;5.82;;;0.50;99.90;;;;;;5046135;28;20223;-82
2022/01/09 01:07:34;;;;;;;6.65;5.68;;;0.40;99.90;;;;;;5048377;28;20194;-80
2022/01/09 01:10:03;;;;;;;5.88;5.30;;;0.40;99.90;;;;;;5049315;28;20233;-80
2022/01/09 01:12:33;;;;;;;6.30;5.80;;;0.40;99.90;;;;;;5048007;28;20653;-81
2022/01/09 01:15:00;;;;;;;6.60;6.00;;;0.40;99.90;;;;;;5044111;28;20215;-80
2022/01/09 01:17:27;;;;;;;6.20;5.70;;;0.40;99.90;;;;;;5040293;28;20679;-81
2022/01/09 01:19:54;;;;;;;5.88;5.45;;;0.40;99.90;;;;;;5056038;28;20260;-80
2022/01/09 01:22:23;;;;;;;5.22;4.82;;;0.50;99.90;;;;;;5061272;28;20263;-80
2022/01/09 01:24:52;;;;;;;6.05;5.45;;;0.40;99.90;;;;;;5057177;28;20296;-80
2022/01/09 01:27:19;;;;;;;5.40;5.00;;;0.40;99.90;;;;;;5061649;28;20227;-80
2022/01/09 01:29:46;;;;;;;5.72;5.32;;;0.40;99.90;;;;;;5060791;28;20453;-81
2022/01/09 01:32:13;;;;;;;6.55;6.05;;;0.40;99.90;;;;;;5064706;28;20205;-80
2022/01/09 01:34:40;;;;;;;6.20;5.70;;;0.40;99.90;;;;;;5063848;28;20210;-81
2022/01/09 01:37:08;;;;;;;5.50;5.10;;;0.40;99.90;;;;;;5063592;28;20210;-80
2022/01/09 01:39:36;;;;;;;5.25;4.85;;;0.40;99.90;;;;;;5060148;28;20210;-80
2022/01/09 01:42:03;;;;;;;6.35;5.75;;;0.40;99.90;;;;;;5063032;28;20670;-79
2022/01/09 01:44:40;;;;;;;5.43;5.03;;;0.30;99.90;;;;;;5061257;28;20312;-81
2022/01/09 01:47:07;;;;;;;5.65;5.25;;;0.40;99.90;;;;;;5061034;28;20226;-80
2022/01/09 01:49:34;;;;;;;5.07;4.68;;;0.30;99.90;;;;;;5060615;28;20223;-80
2022/01/09 01:52:02;;;;;;;4.90;4.57;;;0.30;99.90;;;;;;5062309;28;20195;-81
2022/01/09 01:54:29;;;;;;;4.68;4.35;;;0.30;99.90;;;;;;5065410;28;20264;-81
2022/01/09 01:56:57;;;;;;;5.55;5.15;;;0.30;99.90;;;;;;5057652;28;20652;-81
2022/01/09 01:59:25;;;;;;;5.15;4.75;;;0.30;99.90;;;;;;5060129;28;20291;-81
2022/01/09 02:01:52;;;;;;;5.55;5.15;;;0.20;99.90;;;;;;5065234;28;20202;-80
2022/01/09 02:04:19;;;;;;;5.90;5.40;;;0.20;99.90;;;;;;5060327;28;20234;-80
2022/01/09 02:06:46;;;;;;;5.45;5.13;;;0.10;99.90;;;;;;5062363;28;20198;-80
2022/01/09 02:09:13;;;;;;;5.05;4.75;;;0.10;99.90;;;;;;5059124;28;20218;-80
2022/01/09 02:11:41;;;;;;;4.80;4.50;;;0.10;99.90;;;;;;5061003;28;20279;-80
2022/01/09 02:14:09;;;;;;;5.28;4.95;;;0.10;99.90;;;;;;5059684;28;20230;-81
2022/01/09 02:16:58;;;;;;;5.22;4.90;;;0.00;99.90;;;;;;5062563;28;20210;-79
2022/01/09 02:19:27;;;;;;;4.60;3.92;;;0.00;99.90;;;;;;5059062;28;20222;-81
2022/01/09 02:21:56;;;;;;;4.55;4.22;;;0.00;99.90;;;;;;5059518;28;20209;-80
2022/01/09 02:24:25;;;;;;;4.38;4.07;;;0.00;99.90;;;;;;5051876;28;20219;-81
2022/01/09 02:26:53;;;;;;;4.43;4.13;;;0.00;99.90;;;;;;5036579;28;20207;-80
2022/01/09 02:29:20;;;;;;;5.53;5.05;;;0.00;99.90;;;;;;5042225;28;20231;-80
2022/01/09 02:31:47;;;;;;;4.57;4.18;;;0.00;99.90;;;;;;5039757;28;20273;-81
2022/01/09 02:34:14;;;;;;;4.30;4.00;;;-0.10;99.90;;;;;;5038717;28;20268;-80
2022/01/09 02:36:41;;;;;;;4.68;4.38;;;-0.10;99.90;;;;;;5041168;28;20194;-80
2022/01/09 02:39:09;;;;;;;4.63;4.32;;;-0.20;99.90;;;;;;5038052;28;20253;-80
2022/01/09 02:41:36;;;;;;;5.05;4.72;;;-0.20;99.90;;;;;;5043205;28;20203;-81
2022/01/09 02:44:09;;;;;;;4.65;4.32;;;-0.30;99.90;;;;;;5047998;28;20766;-80
2022/01/09 02:46:49;;;;;;;6.15;4.15;;;-0.40;99.90;;;;;;5062693;28;20207;-81
2022/01/09 02:49:17;;;;;;;4.90;4.50;;;-0.30;99.90;;;;;;5061254;28;20213;-81
2022/01/09 02:51:45;;;;;;;4.80;4.40;;;-0.40;99.90;;;;;;5060197;28;20202;-81
2022/01/09 02:56:55;;;;;;;5.03;4.63;;;-0.40;99.90;;;;;;5058548;28;20874;-80
2022/01/09 02:59:22;;;;;;;4.63;4.32;;;-0.50;99.90;;;;;;5057743;28;20214;-80
2022/01/09 03:01:49;;;;;;;4.60;4.20;;;-0.50;99.90;;;;;;5059209;28;20201;-81
2022/01/09 03:04:16;;;;;;;4.57;4.28;;;-0.50;99.90;;;;;;5061166;28;20696;-80
2022/01/09 03:06:43;;;;;;;4.78;4.47;;;-0.50;99.90;;;;;;5060078;28;20206;-80
2022/01/09 03:09:10;;;;;;;5.07;4.68;;;-0.40;99.90;;;;;;5058367;28;20222;-81
2022/01/09 03:11:40;;;;;;;4.80;4.50;;;-0.40;99.90;;;;;;5060435;28;20212;-80
2022/01/09 03:14:07;;;;;;;4.70;4.40;;;-0.40;99.90;;;;;;5062284;28;20218;-81
2022/01/09 03:16:35;;;;;;;4.88;4.57;;;-0.30;99.90;;;;;;5057607;28;20243;-80
2022/01/09 03:19:02;;;;;;;5.00;4.60;;;-0.30;99.90;;;;;;5057051;28;20222;-81
2022/01/09 03:21:29;;;;;;;5.13;4.72;;;-0.40;99.90;;;;;;5061472;28;20213;-80
2022/01/09 03:23:56;;;;;;;4.65;4.32;;;-0.40;99.90;;;;;;5059808;28;20276;-80
2022/01/09 03:26:23;;;;;;;5.05;4.65;;;-0.50;99.90;;;;;;5043751;28;20277;-80
2022/01/09 03:28:52;;;;;;;4.72;4.40;;;-0.40;99.90;;;;;;5045204;28;20320;-79
2022/01/09 03:31:19;;;;;;;5.22;4.82;;;-0.40;99.90;;;;;;5063689;28;20621;-80
2022/01/09 03:33:46;;;;;;;5.30;4.90;;;-0.40;99.90;;;;;;5061729;28;20206;-80
2022/01/09 03:36:13;;;;;;;5.15;4.63;;;-0.40;99.90;;;;;;5062921;28;20224;-80
2022/01/09 03:38:40;;;;;;;4.55;4.25;;;-0.40;99.90;;;;;;5062457;28;20202;-80
2022/01/09 03:41:07;;;;;;;4.90;4.60;;;-0.40;99.90;;;;;;5060422;28;20206;-79
2022/01/09 03:43:35;;;;;;;4.32;4.03;;;-0.30;99.90;;;;;;5063832;28;20198;-80
2022/01/09 03:46:03;;;;;;;4.82;4.53;;;-0.30;99.90;;;;;;5062527;28;20269;-78
2022/01/09 03:48:32;;;;;;;4.53;4.13;;;-0.20;99.90;;;;;;5062740;28;20195;-79
2022/01/09 03:50:59;;;;;;;4.50;4.20;;;-0.20;99.90;;;;;;5061810;28;20230;-80
2022/01/09 03:53:26;;;;;;;4.38;4.07;;;-0.20;99.90;;;;;;5062645;28;20236;-80
2022/01/09 03:55:55;;;;;;;5.00;4.55;;;-0.20;99.90;;;;;;5059319;28;20245;-80
2022/01/09 03:58:22;;;;;;;4.95;4.65;;;-0.20;99.90;;;;;;5063885;28;20685;-79
2022/01/09 04:00:49;;;;;;;4.97;4.68;;;-0.20;99.90;;;;;;5058920;28;20641;-80
2022/01/09 04:03:17;;;;;;;4.80;4.40;;;-0.20;99.90;;;;;;5060266;28;20256;-79
2022/01/09 04:05:44;;;;;;;4.85;4.53;;;-0.30;99.90;;;;;;5061867;28;20229;-80
2022/01/09 04:08:11;;;;;;;4.75;4.45;;;-0.30;99.90;;;;;;5064688;28;20198;-80
2022/01/09 04:10:42;;;;;;;4.90;4.50;;;-0.30;99.90;;;;;;5045405;28;20789;-80
2022/01/09 04:13:09;;;;;;;4.68;4.38;;;-0.30;99.90;;;;;;5040617;28;20261;-81
2022/01/09 04:15:36;;;;;;;4.75;4.35;;;-0.30;99.90;;;;;;5040741;28;20226;-79
2022/01/09 04:18:03;;;;;;;4.43;4.07;;;-0.30;99.90;;;;;;5042272;28;20414;-79
2022/01/09 04:20:32;;;;;;;5.20;4.80;;;-0.30;99.90;;;;;;5039813;28;20242;-80
2022/01/09 04:23:00;;;;;;;5.65;5.10;;;-0.30;99.90;;;;;;5044645;28;20191;-80
2022/01/09 04:25:27;;;;;;;4.32;4.03;;;-0.30;99.90;;;;;;5041847;28;20210;-79
2022/01/09 04:27:55;;;;;;;4.80;4.40;;;-0.30;99.90;;;;;;5044868;28;20256;-81
2022/01/09 04:30:22;;;;;;;4.53;4.22;;;-0.30;99.90;;;;;;5044597;28;20211;-80
2022/01/09 04:32:49;;;;;;;4.32;4.03;;;-0.20;99.90;;;;;;5045714;28;20261;-80
2022/01/09 04:35:17;;;;;;;4.38;4.07;;;-0.20;99.90;;;;;;5052192;28;20280;-79
2022/01/09 04:37:46;;;;;;;4.40;4.10;;;-0.20;99.90;;;;;;5063698;28;20191;-80
2022/01/09 04:40:15;;;;;;;4.65;3.85;;;-0.20;99.90;;;;;;5059991;28;20226;-80
2022/01/09 04:42:46;;;;;;;4.85;4.55;;;-0.10;99.90;;;;;;5059859;28;20618;-79
2022/01/09 04:45:16;;;;;;;4.63;4.32;;;-0.10;99.90;;;;;;5060939;28;20214;-81
2022/01/09 04:47:46;;;;;;;4.70;4.30;;;-0.20;99.90;;;;;;5061039;28;20549;-80
2022/01/09 04:50:17;;;;;;;4.88;4.45;;;-0.30;99.90;;;;;;5060988;28;20275;-80
2022/01/09 04:52:47;;;;;;;4.78;4.38;;;-0.30;99.90;;;;;;5062718;28;20252;-80
2022/01/09 04:55:14;;;;;;;4.60;4.30;;;-0.30;99.90;;;;;;5061192;28;20214;-80
2022/01/09 04:57:41;;;;;;;4.70;4.40;;;-0.20;99.90;;;;;;5063386;28;20268;-80
2022/01/09 05:00:09;;;;;;;4.40;4.13;;;-0.20;99.90;;;;;;5059210;28;20223;-80
2022/01/09 05:02:37;;;;;;;4.88;4.57;;;-0.20;99.90;;;;;;5059824;28;20545;-80
2022/01/09 05:05:06;;;;;;;4.60;4.30;;;-0.20;99.90;;;;;;5061168;28;20248;-80
2022/01/09 05:07:34;;;;;;;4.22;3.92;;;-0.20;99.90;;;;;;5060529;28;20198;-80
2022/01/09 05:10:03;;;;;;;4.70;4.40;;;-0.20;99.90;;;;;;5060775;28;20222;-80
2022/01/09 05:12:30;;;;;;;4.30;4.00;;;-0.30;99.90;;;;;;5060712;28;20653;-80
2022/01/09 05:14:57;;;;;;;4.63;4.22;;;-0.30;99.90;;;;;;5061534;28;20283;-79
2022/01/09 05:17:25;;;;;;;4.80;4.50;;;-0.30;99.90;;;;;;5059283;28;20199;-80
2022/01/09 05:19:57;;;;;;;4.15;3.88;;;-0.30;99.90;;;;;;5059065;28;20248;-79
2022/01/09 05:22:24;;;;;;;4.18;3.92;;;-0.30;99.90;;;;;;5061540;28;20210;-80
2022/01/09 05:24:52;;;;;;;4.22;4.03;;;-0.30;99.90;;;;;;5061474;28;20225;-80
2022/01/09 05:27:21;;;;;;;4.20;3.88;;;-0.30;99.90;;;;;;5061775;28;20206;-80
2022/01/09 05:29:48;;;;;;;4.28;4.07;;;-0.20;99.90;;;;;;5058296;28;20226;-81
2022/01/09 05:32:15;;;;;;;3.83;3.63;;;-0.20;99.90;;;;;;5059711;28;20316;-80
2022/01/09 05:34:42;;;;;;;3.85;3.65;;;-0.20;99.90;;;;;;5060892;28;20307;-79
2022/01/09 05:37:09;;;;;;;4.63;4.32;;;-0.20;99.90;;;;;;5060885;28;20255;-79
2022/01/09 05:39:37;;;;;;;4.05;3.75;;;-0.10;99.90;;;;;;5060645;28;20229;-81
2022/01/09 05:42:07;;;;;;;4.70;4.40;;;-0.10;99.90;;;;;;5063219;28;20726;-79
2022/01/09 05:44:35;;;;;;;4.30;4.00;;;-0.10;99.90;;;;;;5061130;28;20280;-81
2022/01/09 05:47:04;;;;;;;5.32;4.93;;;-0.20;99.90;;;;;;5062424;28;20194;-80
2022/01/09 05:49:31;;;;;;;4.72;4.43;;;-0.30;99.90;;;;;;5059588;28;25516;-80
2022/01/09 05:51:58;;;;;;;4.60;4.30;;;-0.20;99.90;;;;;;5061145;28;20224;-80
2022/01/09 05:54:26;;;;;;;4.43;4.13;;;-0.30;99.90;;;;;;5064982;28;20665;-80
2022/01/09 05:56:53;;;;;;;4.15;3.85;;;-0.30;99.90;;;;;;5060717;28;20312;-79
2022/01/09 05:59:22;;;;;;;4.60;4.28;;;-0.30;99.90;;;;;;5062150;28;20225;-80
2022/01/09 06:01:51;;;;;;;4.30;4.00;;;-0.30;99.90;;;;;;5062673;28;20210;-80
2022/01/09 06:04:18;;;;;;;4.20;3.97;;;-0.30;99.90;;;;;;5062308;28;20238;-79
2022/01/09 06:06:46;;;;;;;4.15;3.88;;;-0.30;99.90;;;;;;5060028;28;20194;-80
2022/01/09 06:09:13;;;;;;;4.38;4.18;;;-0.30;99.90;;;;;;5060931;28;20206;-80
2022/01/09 06:11:40;;;;;;;4.40;4.10;;;-0.30;99.90;;;;;;5063404;28;20226;-80
2022/01/09 06:14:07;;;;;;;4.75;4.45;;;-0.30;99.90;;;;;;5061336;28;20198;-80
2022/01/09 06:16:34;;;;;;;4.75;4.45;;;-0.30;99.90;;;;;;5061175;28;20228;-80
2022/01/09 06:19:03;;;;;;;4.10;3.90;;;-0.30;99.90;;;;;;5059479;28;20217;-79
2022/01/09 06:21:30;;;;;;;4.57;4.28;;;-0.30;99.90;;;;;;5056365;28;20712;-80
2022/01/09 06:23:57;;;;;;;5.15;4.75;;;-0.30;99.90;;;;;;5058378;28;20263;-80
2022/01/09 06:26:24;;;;;;;8.50;7.72;;;-0.30;99.90;;;;;;5057980;28;20221;-80
2022/01/09 06:28:51;;;;;;;10.07;9.18;;;-0.30;99.90;;;;;;5059256;28;20198;-80
2022/01/09 06:31:18;;;;;;;8.73;7.93;;;-0.30;99.90;;;;;;5058438;28;20222;-79
2022/01/09 06:33:46;;;;;;;8.10;7.40;;;-0.30;99.90;;;;;;5059112;28;20202;-79
2022/01/09 06:36:14;;;;;;;7.55;6.95;;;-0.30;99.90;;;;;;5046307;28;20215;-80
2022/01/09 06:38:41;;;;;;;7.30;6.60;;;-0.20;99.90;;;;;;5042004;28;20199;-80
2022/01/09 06:41:09;;;;;;;7.40;6.70;;;-0.30;99.90;;;;;;5054094;28;20218;-79
2022/01/09 06:43:36;;;;;;;6.88;6.30;;;-0.40;99.90;;;;;;5058322;28;20213;-79
2022/01/09 06:46:03;;;;;;;6.45;5.95;;;-0.50;99.90;;;;;;5059928;28;20218;-80
2022/01/09 06:48:30;;;;;;;5.72;5.32;;;-0.50;99.90;;;;;;5053903;28;20223;-79
2022/01/09 06:50:57;;;;;;;5.45;4.97;;;-0.50;99.90;;;;;;5054058;28;20267;-80
2022/01/09 06:53:26;;;;;;;5.95;5.45;;;-0.50;99.90;;;;;;5053425;28;20680;-80
2022/01/09 06:55:53;;;;;;;6.10;5.60;;;-0.50;99.90;;;;;;5058228;28;20222;-80
2022/01/09 06:58:21;;;;;;;5.47;4.97;;;-0.50;99.90;;;;;;5055361;28;20234;-80
2022/01/09 07:00:48;;;;;;;4.78;4.47;;;-0.50;99.90;;;;;;5054226;28;20218;-80
2022/01/09 07:03:16;;;;;;;5.20;4.80;;;-0.40;99.90;;;;;;5056676;28;20208;-79
2022/01/09 07:05:43;;;;;;;5.10;4.72;;;-0.40;99.90;;;;;;5054312;28;20750;-79
2022/01/09 07:08:10;;;;;;;4.90;4.60;;;-0.40;99.90;;;;;;5053809;28;20198;-80
2022/01/09 07:10:38;;;;;;;5.05;4.65;;;-0.40;99.90;;;;;;5053571;28;20269;-80
2022/01/09 07:13:05;;;;;;;5.07;4.78;;;-0.40;99.90;;;;;;5057668;28;20882;-80
2022/01/09 07:15:33;;;;;;;5.30;5.00;;;-0.50;99.90;;;;;;5055352;28;20607;-80
2022/01/09 07:18:00;;;;;;;4.90;4.47;;;-0.50;99.90;;;;;;5056246;28;20371;-80
2022/01/09 07:20:27;;;;;;;5.03;4.68;;;-0.40;99.90;;;;;;5056872;28;20218;-80
2022/01/09 07:22:54;;;;;;;4.85;4.47;;;-0.40;99.90;;;;;;5056761;28;20203;-79
2022/01/09 07:25:22;;;;;;;4.22;3.92;;;-0.40;99.90;;;;;;5058017;28;20694;-81
2022/01/09 07:27:50;;;;;;;5.10;4.80;;;-0.30;99.90;;;;;;5055804;28;20209;-80
2022/01/09 07:30:17;;;;;;;4.85;4.55;;;-0.30;99.90;;;;;;5057023;28;20229;-80
2022/01/09 07:32:45;;;;;;;5.07;4.78;;;-0.20;99.90;;;;;;5060031;28;20259;-80
2022/01/09 07:35:12;;;;;;;4.60;4.30;;;-0.20;99.90;;;;;;5060589;28;20230;-80
2022/01/09 07:37:39;;;;;;;5.15;4.75;;;-0.20;99.90;;;;;;5058393;28;22932;-79
2022/01/09 07:40:08;;;;;;;5.55;5.15;;;-0.20;99.90;;;;;;5058216;28;20218;-80
2022/01/09 07:42:35;;;;;;;5.85;5.43;;;-0.20;99.90;;;;;;5056514;28;20194;-81
2022/01/09 07:45:06;;;;;;;5.55;5.15;;;-0.20;99.90;;;;;;5056452;28;20226;-80
2022/01/09 07:47:34;;;;;;;5.40;5.00;;;-0.20;99.90;;;;;;5054727;28;20666;-80
2022/01/09 07:50:01;;;;;;;5.75;5.35;;;-0.20;99.90;;;;;;5059501;28;20251;-80
2022/01/09 07:52:28;;;;;;;5.70;5.25;;;-0.10;99.90;;;;;;5056220;28;20264;-79
2022/01/09 07:54:55;;;;;;;5.68;5.07;;;-0.10;99.90;;;;;;5054650;28;20675;-80
2022/01/09 07:57:22;;;;;;;4.75;4.45;;;-0.10;99.90;;;;;;5056773;28;20222;-80
2022/01/09 07:59:49;;;;;;;4.95;4.55;;;0.00;99.90;;;;;;5059273;28;20205;-80
2022/01/09 08:02:17;;;;;;;4.45;4.15;;;0.00;99.90;;;;;;5057653;28;20203;-81
2022/01/09 08:04:44;;;;;;;4.63;4.20;;;0.10;99.90;;;;;;5058451;28;20622;-78
2022/01/09 08:07:12;;;;;;;5.10;4.70;;;0.20;99.90;;;;;;5058596;28;20203;-80
2022/01/09 08:09:39;;;;;;;5.05;4.75;;;0.30;99.90;;;;;;5061093;28;20218;-81
2022/01/09 08:12:10;;;;;;;5.80;5.40;;;0.30;99.90;;;;;;5059719;28;20245;-80
2022/01/09 08:14:37;;;;;;;4.90;4.53;;;0.40;99.90;;;;;;5060577;28;20669;-80
2022/01/09 08:17:05;;;;;;;6.03;5.53;;;0.50;99.90;;;;;;5061720;28;20263;-80
2022/01/09 08:19:35;;;;;;;5.38;4.97;;;0.70;99.90;;;;;;5059398;28;20202;-80
2022/01/09 08:22:02;;;;;;;5.43;4.97;;;0.80;99.90;;;;;;5042794;28;20554;-80
2022/01/09 08:24:29;;;;;;;4.50;4.10;;;0.90;99.90;;;;;;5041092;28;20204;-80
2022/01/09 08:26:56;;;;;;;4.65;4.25;;;1.30;99.90;;;;;;5041294;28;20280;-81
2022/01/09 08:29:24;;;;;;;5.63;5.20;;;1.70;99.90;;;;;;5041107;28;20719;-81
2022/01/09 08:31:51;;;;;;;6.00;5.50;;;1.90;99.90;;;;;;5037801;28;20210;-79
2022/01/09 08:34:18;;;;;;;5.20;4.70;;;2.20;99.90;;;;;;5041459;28;20202;-80
2022/01/09 08:36:47;;;;;;;6.00;5.60;;;2.50;99.90;;;;;;5039572;28;20231;-80
2022/01/09 08:39:14;;;;;;;6.63;6.13;;;2.60;99.90;;;;;;5037554;28;20199;-80
2022/01/09 08:41:42;;;;;;;6.03;5.53;;;2.70;99.90;;;;;;5042863;28;20242;-81
2022/01/09 08:44:09;;;;;;;6.13;5.65;;;2.70;99.90;;;;;;5041179;28;20249;-81
2022/01/09 08:46:37;;;;;;;5.72;5.28;;;2.90;99.90;;;;;;5040165;28;20729;-80
2022/01/09 08:49:06;;;;;;;5.35;4.95;;;2.80;99.90;;;;;;5040358;28;20198;-81
2022/01/09 08:51:33;;;;;;;6.57;5.65;;;2.70;99.90;;;;;;5039902;28;20222;-81
2022/01/09 08:54:02;;;;;;;5.80;5.38;;;2.60;99.90;;;;;;5039886;28;20191;-81
2022/01/09 08:56:29;;;;;;;5.05;4.65;;;2.60;99.90;;;;;;5038473;28;20222;-81
2022/01/09 08:59:01;;;;;;;6.78;6.20;;;2.70;99.90;;;;;;5042082;28;20264;-80
2022/01/09 09:01:28;;;;;;;5.70;5.15;;;2.80;99.90;;;;;;5039456;28;20223;-80
2022/01/09 09:03:55;;;;;;;6.20;5.72;;;2.80;99.90;;;;;;5042588;28;20290;-80
2022/01/09 09:06:22;;;;;;;5.63;4.75;;;2.90;99.90;;;;;;5042360;28;20219;-80
2022/01/09 09:08:50;;;;;;;5.97;5.47;;;3.00;99.90;;;;;;5042479;28;20232;-81
2022/01/09 09:11:18;;;;;;;6.03;5.53;;;3.20;99.90;;;;;;5039390;28;20616;-80
2022/01/09 09:13:45;;;;;;;5.82;5.22;;;3.30;99.90;;;;;;5038696;28;20214;-80
2022/01/09 09:16:12;;;;;;;6.25;5.75;;;3.40;99.90;;;;;;5041030;28;20234;-80
2022/01/09 09:18:39;;;;;;;7.55;6.85;;;3.30;99.90;;;;;;5034614;28;20242;-80
2022/01/09 09:21:06;;;;;;;7.60;7.00;;;3.20;99.90;;;;;;5045043;28;20261;-82
2022/01/09 09:23:34;;;;;;;7.03;6.40;;;3.20;99.90;;;;;;5059215;28;20251;-80
2022/01/09 09:26:01;;;;;;;7.35;6.65;;;3.30;99.90;;;;;;5050865;28;20743;-81
2022/01/09 09:28:30;;;;;;;7.70;6.93;;;5.00;99.90;;;;;;5039667;28;20203;-81
2022/01/09 09:30:57;;;;;;;7.88;7.07;;;7.60;99.90;;;;;;5051296;28;20226;-81
2022/01/09 09:33:24;;;;;;;7.03;6.32;;;9.10;99.90;;;;;;5060413;28;20263;-80
2022/01/09 09:35:52;;;;;;;6.15;5.32;;;10.40;99.90;;;;;;5058452;28;20275;-80
2022/01/09 09:38:19;;;;;;;6.82;6.22;;;11.20;99.90;;;;;;5060357;28;20335;-81
2022/01/09 09:40:46;;;;;;;6.57;5.97;;;12.40;99.90;;;;;;5058709;28;20218;-80
2022/01/09 09:43:16;;;;;;;6.82;6.13;;;14.00;98.70;;;;;;5059303;28;20243;-80
2022/01/09 09:45:44;;;;;;;5.80;5.30;;;15.30;94.20;;;;;;5058661;28;20329;-82
2022/01/09 09:48:12;;;;;;;5.30;4.80;;;15.70;90.60;;;;;;5060363;28;20202;-81
2022/01/09 09:50:40;;;;;;;5.97;5.28;;;15.90;88.60;;;;;;5061291;28;20219;-81
2022/01/09 09:53:07;;;;;;;5.85;5.35;;;15.90;82.80;;;;;;5057961;28;20293;-80
2022/01/09 09:55:34;;;;;;;5.72;5.22;;;13.90;87.00;;;;;;5061682;28;20222;-80
2022/01/09 09:58:01;;;;;;;6.32;5.72;;;11.50;92.00;;;;;;5058147;28;20576;-81
2022/01/09 10:00:29;;;;;;;6.45;5.60;;;9.90;95.10;;;;;;5057230;28;20202;-80
2022/01/09 10:03:00;;;;;;;6.28;5.70;;;9.30;96.90;;;;;;5061315;28;20194;-81
2022/01/09 10:05:29;;;;;;;6.85;5.80;;;8.40;98.90;;;;;;5059981;28;20211;-80
2022/01/09 10:08:05;;;;;;;5.80;5.30;;;7.70;99.90;;;;;;5060885;28;20248;-80
2022/01/09 10:10:34;;;;;;;6.22;5.63;;;7.30;99.90;;;;;;5054185;28;20289;-80
2022/01/09 10:13:09;;;;;;;6.13;5.63;;;7.30;99.90;;;;;;5062397;28;20540;-80
2022/01/09 10:15:57;;;;;;;6.47;5.88;;;7.00;99.90;;;;;;5060869;28;20648;-81
2022/01/09 10:18:43;;;;;;;7.07;6.38;;;6.60;99.90;;;;;;5062598;28;20243;-81
2022/01/09 10:21:13;;;;;;;6.72;6.03;;;6.30;99.90;;;;;;5058745;28;20226;-81
2022/01/09 10:23:59;;;;;;;6.82;5.80;;;6.10;99.90;;;;;;5062933;28;20680;-81
2022/01/09 10:26:26;;;;;;;5.72;5.22;;;6.10;99.90;;;;;;5056064;28;20223;-80
2022/01/09 10:28:54;;;;;;;6.65;6.05;;;6.00;99.90;;;;;;5064024;28;20224;-81
2022/01/09 10:31:21;;;;;;;5.38;4.97;;;5.90;99.90;;;;;;5060320;28;20704;-81
2022/01/09 10:34:02;;;;;;;6.03;5.55;;;5.60;99.90;;;;;;5061986;28;20202;-80
2022/01/09 10:36:37;;;;;;;6.30;5.30;;;5.20;99.90;;;;;;5065136;28;20275;-80
2022/01/09 10:39:07;;;;;;;6.68;6.07;;;4.80;99.90;;;;;;5067279;28;20220;-80
2022/01/09 10:41:49;;;;;;;5.43;4.93;;;4.40;99.90;;;;;;5064062;28;20279;-81
2022/01/09 10:44:17;;;;;;;5.97;5.47;;;4.20;99.90;;;;;;5063452;28;20194;-81
2022/01/09 10:46:55;;;;;;;7.40;4.95;;;4.00;99.90;;;;;;5061895;28;20218;-80
2022/01/09 10:49:24;;;;;;;5.40;4.90;;;4.00;99.90;;;;;;5061509;28;20293;-82
2022/01/09 10:51:51;;;;;;;4.80;4.50;;;4.00;99.90;;;;;;5060348;28;20222;-80
2022/01/09 10:54:31;;;;;;;5.28;4.80;;;3.80;99.90;;;;;;5056658;28;20656;-80
2022/01/09 10:57:13;;;;;;;5.78;5.18;;;3.70;99.90;;;;;;5060398;28;20221;-80
2022/01/09 10:59:40;;;;;;;4.97;4.63;;;3.60;99.90;;;;;;5057895;28;20195;-80
2022/01/09 11:02:09;;;;;;;4.60;4.30;;;3.60;99.90;;;;;;5062340;28;20280;-81
2022/01/09 11:04:38;;;;;;;5.43;4.63;;;3.50;99.90;;;;;;5059068;28;20206;-78
2022/01/09 11:07:07;;;;;;;5.05;4.65;;;3.40;99.90;;;;;;5061096;28;20210;-80
2022/01/09 11:09:34;;;;;;;4.95;4.55;;;3.30;99.90;;;;;;5060108;28;20198;-79
2022/01/09 11:12:03;;;;;;;4.75;4.35;;;3.30;99.90;;;;;;5060297;28;20234;-80
2022/01/09 11:14:35;;;;;;;5.22;4.78;;;3.30;99.90;;;;;;5056681;28;20195;-79
2022/01/09 11:17:05;;;;;;;5.22;4.85;;;3.30;99.90;;;;;;5056331;28;20677;-80
2022/01/09 11:19:33;;;;;;;5.63;5.22;;;3.40;99.90;;;;;;5062159;28;20670;-81
2022/01/09 11:22:05;;;;;;;5.05;4.65;;;3.50;99.90;;;;;;5058050;28;20218;-80
2022/01/09 11:25:07;;;;;;;5.75;5.25;;;3.60;99.90;;;;;;5060954;28;20194;-79
2022/01/09 11:27:51;;;;;;;5.53;5.13;;;3.60;99.90;;;;;;5059078;28;20707;-81
2022/01/09 11:30:23;;;;;;;8.20;7.32;;;3.60;99.90;;;;;;5057040;28;20652;-79
2022/01/09 11:33:11;;;;;;;6.28;5.68;;;3.60;99.90;;;;;;5057417;28;20700;-82
2022/01/09 11:35:46;;;;;;;5.78;5.22;;;3.50;99.90;;;;;;5062101;28;20203;-81
2022/01/09 11:38:22;;;;;;;6.95;6.25;;;3.40;99.90;;;;;;5058371;28;20305;-81
2022/01/09 11:40:49;;;;;;;6.03;5.43;;;3.40;99.90;;;;;;5056986;28;20210;-82
2022/01/09 11:43:18;;;;;;;6.78;6.18;;;3.50;99.90;;;;;;5066593;28;20255;-80
2022/01/09 11:45:51;;;;;;;6.88;6.28;;;3.60;99.90;;;;;;5062067;28;20203;-81
2022/01/09 11:48:21;;;;;;;6.40;5.80;;;3.70;99.90;;;;;;5065322;28;20255;-81
2022/01/09 11:51:16;;;;;;;5.85;5.35;;;3.80;99.90;;;;;;5063253;28;20244;-81
2022/01/09 11:54:07;;;;;;;5.63;5.13;;;3.90;99.90;;;;;;5032234;28;20657;-80
2022/01/09 11:56:58;;;;;;;5.30;4.80;;;3.80;99.90;;;;;;5056616;28;20218;-80
2022/01/09 11:59:28;;;;;;;5.82;5.32;;;3.70;99.90;;;;;;5057228;28;20575;-80
2022/01/09 12:01:59;;;;;;;6.43;5.30;;;3.70;99.90;;;;;;5062350;28;20240;-80
2022/01/09 12:05:06;;;;;;;5.75;5.20;;;3.70;99.90;;;;;;5062152;28;20214;-81
2022/01/09 12:08:05;;;;;;;6.38;5.78;;;3.70;99.90;;;;;;5066367;28;20218;-81
2022/01/09 12:10:41;;;;;;;6.22;5.65;;;3.80;99.90;;;;;;5064160;28;20894;-81
2022/01/09 12:13:50;;;;;;;5.97;5.47;;;3.90;99.90;;;;;;5065313;28;20702;-79
2022/01/09 12:16:56;;;;;;;6.00;5.50;;;3.90;99.90;;;;;;5063331;28;20943;-80
2022/01/09 12:20:03;;;;;;;5.88;5.38;;;4.00;99.90;;;;;;5059302;28;20664;-81
2022/01/09 12:23:01;;;;;;;6.60;6.05;;;4.30;99.90;;;;;;5046662;28;20222;-80
2022/01/09 12:25:57;;;;;;;7.57;6.18;;;4.50;99.90;;;;;;5043689;28;20281;-80
2022/01/09 12:28:44;;;;;;;6.25;5.75;;;4.80;99.90;;;;;;5059344;28;20326;-80
2022/01/09 12:31:25;;;;;;;7.82;6.90;;;5.00;99.90;;;;;;5060101;28;20221;-81
2022/01/09 12:33:53;;;;;;;6.20;5.68;;;5.00;99.90;;;;;;5065816;28;20198;-80
2022/01/09 12:36:31;;;;;;;6.80;6.20;;;5.00;99.90;;;;;;5064388;28;20225;-81
2022/01/09 12:39:03;;;;;;;6.18;5.13;;;4.90;99.90;;;;;;5058911;28;20724;-80
2022/01/09 12:41:42;;;;;;;6.43;5.65;;;4.80;99.90;;;;;;5062768;28;20652;-80
2022/01/09 12:44:10;;;;;;;5.93;5.43;;;4.70;99.90;;;;;;5064630;28;20213;-82
2022/01/09 12:46:51;;;;;;;5.75;5.20;;;4.70;99.90;;;;;;5058372;28;20226;-79
2022/01/09 12:49:19;;;;;;;6.50;5.90;;;4.70;99.90;;;;;;5058885;28;20218;-80
2022/01/09 12:51:49;;;;;;;6.95;6.00;;;4.80;99.90;;;;;;5060350;28;20727;-80
2022/01/09 12:54:16;;;;;;;6.43;5.93;;;4.90;99.90;;;;;;5060241;28;20248;-80
2022/01/09 12:56:45;;;;;;;6.00;5.40;;;5.00;99.90;;;;;;5055619;28;20218;-78
2022/01/09 12:59:14;;;;;;;6.00;5.50;;;5.10;99.90;;;;;;5058594;28;20622;-79
2022/01/09 13:01:43;;;;;;;6.05;5.30;;;5.00;99.90;;;;;;5060528;28;20222;-79
2022/01/09 13:04:17;;;;;;;4.97;4.57;;;5.10;99.90;;;;;;5060036;28;20211;-78
2022/01/09 13:06:47;;;;;;;4.88;4.47;;;5.10;99.90;;;;;;5064033;28;20735;-79
2022/01/09 13:09:18;;;;;;;7.10;5.05;;;5.10;99.90;;;;;;5064295;28;20773;-81